福岡空港の過去48時間の天気

福岡空港 (Fukuoka)

現在時刻: 12/15 21:54 JST (12/15 12:54 UTC) 以下の時間は現地時間です。

過去48時間のMETAR気象情報
時間 風向 風速(m/s) 視程 気温(℃) 湿度(%) 気圧(hPa) 天気現象
15 21:30 南南東 2 10km以上 6 76 1027
15 21:00 東南東 2 10km以上 7 70 1027
15 20:30 2 10km以上 7 70 1028
15 20:00 南南西 2 10km以上 7 70 1028
15 19:30 東南東 2 10km以上 8 71 1028
15 19:00 2 10km以上 9 66 1028
15 18:30 東北東 2 10km以上 10 58 1028
15 18:00 北北東 2 10km以上 11 58 1028
15 17:30 北北西 2 10km以上 11 58 1027
15 17:00 北北西 3 10km以上 11 54 1027
15 16:30 北北西 3 10km以上 12 54 1027
15 16:00 不定 1 10km以上 12 50 1027
15 15:30 不定 2 10km以上 12 47 1027
15 15:00 3 10km以上 13 47 1027
15 14:30 南南東 2 10km以上 13 44 1028
15 14:00 南東 2 10km以上 12 47 1028
15 13:30 不定 2 10km以上 12 47 1028
15 13:00 西南西 2 10km以上 12 50 1029
15 12:30 不定 2 10km以上 11 50 1029
15 12:00 3 10km以上 11 50 1030
15 11:30 南南東 2 10km以上 10 54 1030
15 11:00 南南東 3 10km以上 9 53 1031
15 10:30 4 10km以上 8 53 1031
15 10:00 4 10km以上 8 53 1031
15 09:30 南南東 2 10km以上 7 61 1031
15 09:00 南南東 3 10km以上 6 65 1031
15 08:30 南南東 4 10km以上 4 75 1031
15 08:00 南南東 2 10km以上 3 75 1031
15 07:30 南東 2 10km以上 3 75 1031
15 07:00 南東 3 10km以上 3 75 1030
15 06:30 南南東 2 10km以上 2 81 1030
15 06:00 南東 2 10km以上 2 81 1030
15 05:30 南東 2 10km以上 2 81 1030
15 05:00 南東 2 10km以上 3 75 1030
15 04:30 南東 2 10km以上 2 81 1030
15 04:00 南東 2 10km以上 3 75 1030
15 03:30 南東 2 10km以上 3 75 1030
15 03:00 南南東 3 10km以上 3 75 1030
15 02:30 南東 3 10km以上 4 70 1031
15 02:00 南南東 3 10km以上 3 75 1031
15 01:30 南南東 3 10km以上 3 81 1030
15 01:00 南東 3 10km以上 4 70 1030
15 00:30 南東 2 10km以上 4 70 1030
15 00:00 南東 2 10km以上 4 75 1030
14 23:30 東南東 1 10km以上 5 70 1030
14 23:00 1 10km以上 6 61 1030
14 22:30 不定 1 10km以上 6 61 1030
14 22:00 2 10km以上 6 61 1030
14 21:30 2 10km以上 6 61 1030
14 21:00 2 10km以上 6 61 1030
14 20:30 南東 3 10km以上 6 61 1030
14 20:00 南南東 2 10km以上 6 61 1030
14 19:30 不定 2 10km以上 6 57 1029
14 19:00 北西 2 10km以上 8 46 1029
14 18:30 北北西 2 10km以上 8 46 1029
14 18:00 北北西 2 10km以上 7 49 1029
14 17:30 3 10km以上 8 46 1029
14 17:00 北北西 3 10km以上 8 46 1029
14 16:30 北西 3 10km以上 8 46 1029
14 16:00 西北西 3 10km以上 8 42 1029
14 15:30 北西 4 10km以上 8 46 1029
14 15:00 北北西 4 10km以上 9 43 1028
14 14:30 北北西 4 10km以上 8 46 1028
14 14:00 北北西 5 10km以上 9 43 1028
14 13:30 北西 4 10km以上 9 46 1029
14 13:00 北西 4 10km以上 9 46 1029
14 12:46 北西 4 10km以上 8 46 1029
14 12:35 5 10km以上 9 43 1029
14 12:30 西北西 4 10km以上 9 46 1029
14 12:00 北西 4 10km以上 9 43 1029
14 11:30 北北西 4 10km以上 8 42 1030
14 11:00 北北西 4 10km以上 8 46 1030
14 10:30 4 10km以上 8 49 1030
14 10:00 5 10km以上 8 46 1030
14 09:30 6 10km以上 8 46 1030
14 09:00 6 10km以上 8 46 1030
14 08:30 6 10km以上 7 53 1030
14 08:00 5 10km以上 7 53 1029
14 07:30 6 10km以上 8 49 1029
14 07:00 5 10km以上 8 49 1028
14 06:30 7 10km以上 8 53 1028
14 06:00 北北西 5 10km以上 8 49 1028
14 05:30 北北西 5 10km以上 8 49 1028
14 05:00 5 10km以上 9 46 1027
14 04:30 5 10km以上 9 50 1027
14 04:00 北北西 7 10km以上 9 53 1027
14 03:30 北北西 6 10km以上 9 53 1027
14 03:00 北北西 5 10km以上 9 53 1027
14 02:30 北西 5 10km以上 10 50 1027
14 02:00 北西 4 10km以上 9 53 1027
14 01:30 北西 5 10km以上 10 46 1027
14 01:00 北西 5 10km以上 9 46 1027
14 00:30 北西 5 10km以上 10 46 1027
14 00:00 北西 6 10km以上 9 50 1027
13 23:30 西北西 5 10km以上 10 46 1027
13 23:00 西北西 6 10km以上 9 53 1027
13 22:30 西北西 7 10km以上 10 46 1027
13 22:00 西北西 5 10km以上 10 50 1027
RJFF 151230Z 16003KT 120V180 9999 FEW035 06/02 Q1027 NOSIG RMK 1CU035 A3034
RJFF 151200Z 12004KT 080V140 9999 FEW035 07/02 Q1027 NOSIG RMK 1CU035 A3035
RJFF 151130Z 18003KT 150V210 9999 FEW035 07/02 Q1028 NOSIG RMK 1CU035 A3037
RJFF 151100Z 20004KT 170V260 9999 FEW035 07/02 Q1028 NOSIG RMK 1CU035 A3037
RJFF 151030Z 12003KT 070V170 9999 FEW035 08/03 Q1028 NOSIG RMK 1CU035 A3037
RJFF 151000Z 08003KT 030V140 9999 FEW035 09/03 Q1028 NOSIG RMK 1CU035 A3037
RJFF 150930Z 07004KT 020V120 9999 FEW035 10/02 Q1028 NOSIG RMK 1CU035 A3037
RJFF 150900Z 03004KT 340V120 9999 FEW035 11/03 Q1028 NOSIG RMK 1CU035 A3036
RJFF 150830Z 33004KT 9999 FEW035 11/03 Q1027 NOSIG RMK 1CU035 A3035
RJFF 150800Z 34006KT 320V020 9999 FEW035 11/02 Q1027 BECMG 12004KT
RJFF 150730Z 33006KT 9999 FEW035 12/03 Q1027 NOSIG RMK 1CU035 A3035
RJFF 150700Z VRB02KT 9999 FEW035 12/02 Q1027 BECMG 01005KT
RJFF 150630Z VRB04KT 9999 FEW035 12/01 Q1027 BECMG 01005KT
RJFF 150600Z VRB05KT 9999 FEW035 13/02 Q1027 BECMG 01005KT
RJFF 150530Z 16004KT 110V200 9999 FEW030 13/01 Q1028 BECMG 33005KT
RJFF 150500Z 13003KT 020V180 9999 FEW030 12/01 Q1028 BECMG TL0530 33005KT
RJFF 150430Z VRB04KT 9999 FEW030 12/01 Q1028 BECMG TL0500 35005KT
RJFF 150400Z 25004KT 190V350 9999 FEW030 12/02 Q1029 NOSIG RMK 1CU030 A3039
RJFF 150330Z VRB03KT 9999 FEW030 11/01 Q1029 BECMG TL0500 35005KT
RJFF 150300Z VRB05KT 9999 FEW030 11/01 Q1030 BECMG 35005KT RMK 1CU030 A3041
RJFF 150230Z 16004KT 100V190 9999 FEW030 10/01 Q1030 NOSIG RMK 1CU030 A3043
RJFF 150200Z 16006KT 9999 FEW035 09/M00 Q1031 NOSIG RMK 1CU035 A3044
RJFF 150130Z 17008KT 9999 FEW035 SCT040 08/M01 Q1031 NOSIG RMK 1CU035 3SC040 A3046
RJFF 150100Z 18007KT 160V240 9999 FEW035 SCT045 08/M01 Q1031 NOSIG RMK 1CU035 3SC045 A3047
RJFF 150030Z 16004KT 110V190 9999 FEW035 07/M00 Q1031 NOSIG RMK 1CU035 A3047
RJFF 150000Z 15005KT 9999 FEW035 06/M00 Q1031 NOSIG RMK 1CU035 A3046
RJFF 142330Z 15007KT 9999 FEW035 04/M00 Q1031 NOSIG RMK 1CU035 A3046
RJFF 142300Z 16004KT 9999 FEW030 03/M01 Q1031 NOSIG RMK 1CU030 A3045
RJFF 142230Z 14004KT 110V190 9999 FEW030 SCT040 BKN050 03/M01 Q1031 NOSIG RMK 1CU030 3CU040 6SC050 A3045
RJFF 142200Z 14005KT 9999 FEW035 BKN050 03/M01 Q1030 NOSIG RMK 2CU035 6SC050 A3044
RJFF 142130Z 16004KT 9999 FEW035 BKN050 02/M01 Q1030 NOSIG RMK 1CU035 6SC050 A3044
RJFF 142100Z 14003KT 110V170 9999 FEW035 SCT/// 02/M01 Q1030 NOSIG RMK 1CU035 A3043
RJFF 142030Z AUTO 13004KT 9999 NSC 02/M01 Q1030 NOSIG RMK A3044
RJFF 142000Z AUTO 13004KT 9999 NSC 03/M01 Q1030 NOSIG RMK A3044
RJFF 141930Z AUTO 14004KT 9999 BKN049 02/M01 Q1030 NOSIG RMK A3043
RJFF 141900Z AUTO 13003KT 9999 NSC 03/M01 Q1030 NOSIG RMK A3044
RJFF 141830Z AUTO 14004KT 120V190 9999 NCD 03/M01 Q1030 NOSIG RMK A3044
RJFF 141800Z AUTO 16005KT 9999 BKN049 03/M01 Q1030 NOSIG RMK A3044
RJFF 141730Z AUTO 13006KT 9999 FEW049 04/M01 Q1031 NOSIG RMK A3044
RJFF 141700Z AUTO 15005KT 9999 NSC 03/M01 Q1031 NOSIG RMK A3045
RJFF 141630Z AUTO 15006KT 9999 NSC 03/M00 Q1030 NOSIG RMK A3044
RJFF 141600Z AUTO 14005KT 9999 NSC 04/M01 Q1030 NOSIG RMK A3044
RJFF 141530Z AUTO 14003KT 9999 FEW048 BKN050 04/M01 Q1030 NOSIG RMK A3044
RJFF 141500Z AUTO 14003KT 9999 FEW047 SCT050 04/M00 Q1030 NOSIG RMK A3044
RJFF 141430Z AUTO 12002KT 9999 NSC 05/M00 Q1030 NOSIG RMK A3044
RJFF 141400Z AUTO 09001KT 9999 SCT048 OVC050 06/M01 Q1030 NOSIG RMK A3044
RJFF 141330Z VRB01KT 9999 FEW040 BKN050 06/M01 Q1030 NOSIG RMK 1CU040 5SC050 A3044
RJFF 141300Z 08003KT 050V120 9999 FEW035 SCT040 BKN050 06/M01 Q1030 NOSIG RMK 1CU035 3CU040 5SC050 A3044
RJFF 141230Z 10003KT 060V130 9999 FEW035 SCT040 06/M01 Q1030 NOSIG RMK 1CU035 3CU040 A3043 WS 15KT GAIN OBS AT 1205Z ON FNA RWY16 1700FT IN DES CRJ7
RJFF 141200Z 10003KT 050V150 9999 FEW035 SCT040 BKN050 06/M01 Q1030 NOSIG RMK 1CU035 4CU040 6SC050 A3043
RJFF 141130Z 14005KT 9999 FEW035 SCT040 BKN050 06/M01 Q1030 NOSIG RMK 1CU035 3CU040 5SC050 A3043
RJFF 141100Z 15004KT 100V190 9999 FEW035 SCT050 06/M01 Q1030 NOSIG RMK 1CU035 4SC050 A3042
RJFF 141030Z VRB03KT 9999 FEW035 06/M02 Q1029 NOSIG RMK 1CU035 A3041
RJFF 141000Z 31003KT 260V030 9999 FEW035 08/M03 Q1029 NOSIG RMK 1CU035 A3041
RJFF 140930Z 34004KT 9999 FEW035 08/M03 Q1029 NOSIG RMK 1CU035 A3041
RJFF 140900Z 33004KT 310V040 9999 FEW035 07/M03 Q1029 NOSIG RMK 1CU035 A3041
RJFF 140830Z 35005KT 310V030 9999 FEW035 08/M03 Q1029 NOSIG RMK 1CU035 A3040
RJFF 140800Z 34006KT 9999 FEW035 08/M03 Q1029 NOSIG RMK 1CU035 A3040
RJFF 140730Z 32006KT 9999 FEW035 08/M03 Q1029 NOSIG RMK 1CU035 A3039
RJFF 140700Z 29006KT 9999 FEW035 08/M04 Q1029 NOSIG RMK 1CU035 A3039
RJFF 140630Z 32007KT 280V360 9999 FEW035 SCT045 08/M03 Q1029 NOSIG RMK 1CU035 3CU045 A3039
RJFF 140600Z 33008KT 290V010 9999 FEW035 SCT045 09/M03 Q1028 NOSIG RMK 1CU035 3CU045 A3038
RJFF 140530Z 34007KT 310V050 9999 FEW035 SCT045 08/M03 Q1028 NOSIG RMK 1CU035 3CU045 A3037
RJFF 140500Z 33009KT 290V010 9999 FEW035 SCT045 09/M03 Q1028 NOSIG RMK 1CU035 4CU045 A3038
RJFF 140430Z 31007KT 220V030 9999 FEW035 BKN045 09/M02 Q1029 NOSIG RMK 1CU035 5CU045 A3039
RJFF 140400Z 32008KT 250V010 9999 FEW035 SCT045 09/M02 Q1029 NOSIG RMK 1CU035 4CU045 A3039
RJFF 140346Z 31007KT 270V010 9999 FEW035 SCT045 08/M03 Q1029 RMK 1CU035 4CU045 A3039
RJFF 140335Z 01010KT 9999 FEW035 BKN045 09/M03 Q1029 RMK 1CU035 5CU045 A3039
RJFF 140330Z 30008KT 270V010 9999 FEW035 BKN045 09/M02 Q1029 NOSIG RMK 1CU035 5CU045 A3039
RJFF 140300Z 32007KT 260V030 9999 FEW035 SCT045 09/M03 Q1029 NOSIG RMK 1CU035 4CU045 A3041
RJFF 140230Z 34008KT 290V020 9999 FEW035 SCT045 08/M04 Q1030 NOSIG RMK 1CU035 4CU045 A3042
RJFF 140200Z 33008KT 290V030 9999 FEW035 BKN045 08/M03 Q1030 NOSIG RMK 1CU035 5CU045 A3043
RJFF 140130Z 35008KT 310V030 9999 FEW035 SCT045 BKN050 08/M02 Q1030 NOSIG RMK 1CU035 3CU045 5SC050 A3044
RJFF 140100Z 35010KT 310V020 9999 FEW035 SCT045 08/M03 Q1030 NOSIG RMK 1CU035 3CU045 A3044
RJFF 140030Z 35011KT 9999 FEW035 SCT045 08/M03 Q1030 NOSIG RMK 1CU035 3CU045 A3044
RJFF 140000Z 36011KT 9999 FEW035 BKN050 08/M03 Q1030 NOSIG RMK 1CU035 6SC050 A3043
RJFF 132330Z 01011KT 9999 FEW035 BKN050 07/M02 Q1030 NOSIG RMK 1CU035 6SC050 A3042
RJFF 132300Z 01010KT 9999 FEW030 BKN050 07/M02 Q1029 NOSIG RMK 1CU030 7SC050 A3041
RJFF 132230Z 36012KT 9999 FEW030 SCT040 BKN050 08/M02 Q1029 NOSIG RMK 1CU030 3CU040 7SC050 A3040
RJFF 132200Z 01010KT 9999 FEW030 BKN050 08/M02 Q1028 NOSIG RMK 1CU030 7SC050 A3038
RJFF 132130Z 01014KT 9999 FEW035 BKN050 08/M01 Q1028 NOSIG RMK 1CU035 7SC050 A3037
RJFF 132100Z 34009KT 9999 FEW035 BKN050 08/M02 Q1028 NOSIG RMK 1CU035 7SC050 A3036
RJFF 132030Z AUTO 34010KT 9999 SCT048 OVC050 08/M02 Q1028 NOSIG RMK A3036
RJFF 132000Z AUTO 35009KT 9999 FEW044 OVC046 09/M02 Q1027 NOSIG RMK A3035
RJFF 131930Z AUTO 35010KT 9999 BKN044 OVC049 09/M01 Q1027 NOSIG RMK A3034
RJFF 131900Z AUTO 34013KT 9999 BKN042 BKN047 OVC050 09/M00 Q1027 NOSIG RMK A3034
RJFF 131830Z AUTO 34011KT 9999 FEW039 SCT042 BKN044 09/00 Q1027 NOSIG RMK A3034
RJFF 131800Z AUTO 33010KT 290V360 9999 FEW041 BKN043 BKN050 09/00 Q1027 NOSIG RMK A3034
RJFF 131730Z AUTO 31009KT 9999 FEW042 BKN048 BKN050 10/00 Q1027 NOSIG RMK A3034
RJFF 131700Z AUTO 31008KT 9999 FEW041 SCT045 BKN046 09/M00 Q1027 NOSIG RMK A3034
RJFF 131630Z AUTO 32010KT 9999 FEW048 BKN050 OVC060 10/M01 Q1027 NOSIG RMK A3034
RJFF 131600Z AUTO 32010KT 9999 NSC 09/M02 Q1027 NOSIG RMK A3034
RJFF 131530Z AUTO 31010KT 260V340 9999 NSC 10/M01 Q1027 NOSIG RMK A3034
RJFF 131500Z AUTO 32011KT 290V350 9999 FEW046 BKN050 OVC060 09/M01 Q1027 NOSIG RMK A3034
RJFF 131430Z AUTO 30010KT 270V330 9999 FEW046 OVC050 10/M01 Q1027 NOSIG RMK A3033
RJFF 131400Z AUTO 29012KT 9999 NSC 09/M00 Q1027 NOSIG RMK A3034
RJFF 131330Z 30013KT 270V330 9999 FEW030 BKN060 10/M01 Q1027 NOSIG RMK 1CU030 7SC060 A3033
RJFF 131300Z 29010KT 260V320 9999 FEW030 SCT040 BKN060 10/M00 Q1027 NOSIG RMK 1CU030 4CU040 7SC060 A3033